createdAt,value
2023-12-29T00:00:00.697Z,82.3
2023-12-29T00:05:00.909Z,81.7
2023-12-29T00:10:01.044Z,80.7
2023-12-29T00:15:00.702Z,81.1
2023-12-29T00:20:00.748Z,81.8
2023-12-29T00:25:00.976Z,81.3
2023-12-29T00:30:00.687Z,80.5
2023-12-29T00:35:00.824Z,81.2
2023-12-29T00:40:00.833Z,81.8
2023-12-29T00:45:00.698Z,81.6
2023-12-29T00:50:00.764Z,82.0
2023-12-29T00:55:01.035Z,81.7
2023-12-29T01:00:00.869Z,80.0
2023-12-29T01:05:00.802Z,80.8
2023-12-29T01:10:00.838Z,81.8
2023-12-29T01:15:06.575Z,80.4
2023-12-29T01:20:00.863Z,80.7
2023-12-29T01:25:01.295Z,81.3
2023-12-29T01:30:00.847Z,80.3
2023-12-29T01:35:00.851Z,79.4
2023-12-29T01:40:02.056Z,80.4
2023-12-29T01:45:00.703Z,82.1
2023-12-29T01:50:00.875Z,82.2
2023-12-29T01:55:01.098Z,81.1
2023-12-29T02:05:01.202Z,80.5
2023-12-29T02:10:01.102Z,80.0
2023-12-29T02:15:01.275Z,81.0
2023-12-29T02:20:01.598Z,81.3
2023-12-29T02:25:00.972Z,81.1
2023-12-29T02:30:09.779Z,78.9
2023-12-29T02:35:01.671Z,80.6
2023-12-29T02:40:01.672Z,80.5
2023-12-29T02:45:00.739Z,80.9
2023-12-29T02:50:01.077Z,81.1
2023-12-29T02:55:00.835Z,80.1
2023-12-29T03:00:01.089Z,79.4
2023-12-29T03:05:00.914Z,80.2
2023-12-29T03:10:01.058Z,80.4
2023-12-29T03:15:00.762Z,80.0
2023-12-29T03:20:02.575Z,79.7
2023-12-29T03:25:00.796Z,81.5
2023-12-29T03:30:00.773Z,80.5
2023-12-29T03:35:00.990Z,80.5
2023-12-29T03:40:00.803Z,80.1
2023-12-29T03:45:00.659Z,82.3
2023-12-29T03:50:00.983Z,81.9
2023-12-29T03:55:03.242Z,82.1
2023-12-29T04:00:00.762Z,82.9
2023-12-29T04:05:00.762Z,82.3
2023-12-29T04:10:01.059Z,82.2
2023-12-29T04:15:00.656Z,83.5
2023-12-29T04:20:01.061Z,84.0
2023-12-29T04:25:00.851Z,86.6
2023-12-29T04:30:00.920Z,86.3
2023-12-29T04:35:00.759Z,86.3
2023-12-29T04:40:00.718Z,89.3
2023-12-29T04:45:00.702Z,92.3
2023-12-29T04:50:00.867Z,91.4
2023-12-29T04:55:01.148Z,91.2
2023-12-29T05:00:00.673Z,91.3
2023-12-29T05:05:00.829Z,92.4
2023-12-29T05:10:00.824Z,90.1
2023-12-29T05:15:00.895Z,90.2
2023-12-29T05:20:01.129Z,89.8
2023-12-29T05:25:01.991Z,91.1
2023-12-29T05:30:00.805Z,92.9
2023-12-29T05:35:00.960Z,92.6
2023-12-29T05:40:00.817Z,94.4
2023-12-29T05:45:00.733Z,92.1
2023-12-29T05:50:00.976Z,91.1
2023-12-29T05:55:01.068Z,90.7
2023-12-29T06:00:00.665Z,91.1
2023-12-29T06:05:00.873Z,92.4
2023-12-29T06:10:00.805Z,91.8
2023-12-29T06:15:00.835Z,89.9
2023-12-29T06:20:00.817Z,91.2
2023-12-29T06:25:00.828Z,90.6
2023-12-29T06:30:00.746Z,90.4
2023-12-29T06:35:00.682Z,90.1
2023-12-29T06:40:00.899Z,89.4
2023-12-29T06:45:01.150Z,89.8
2023-12-29T06:50:01.719Z,90.7
2023-12-29T06:55:01.509Z,87.7
2023-12-29T07:00:00.683Z,88.7
2023-12-29T07:05:00.862Z,89.3
2023-12-29T07:10:01.303Z,87.9
2023-12-29T07:15:00.693Z,88.3
2023-12-29T07:20:01.315Z,89.3
2023-12-29T07:25:00.976Z,88.1
2023-12-29T07:30:00.955Z,88.1
2023-12-29T07:35:00.851Z,87.4
2023-12-29T07:40:01.045Z,88.5
2023-12-29T07:45:00.764Z,89.3
2023-12-29T07:50:00.904Z,89.7
2023-12-29T07:55:00.971Z,89.7
2023-12-29T08:00:01.286Z,90.3
2023-12-29T08:05:00.687Z,89.0
2023-12-29T08:10:01.144Z,89.7
2023-12-29T08:15:00.737Z,88.9
2023-12-29T08:20:00.700Z,90.5
2023-12-29T08:25:00.807Z,89.3
2023-12-29T08:30:00.706Z,87.9
2023-12-29T08:35:00.998Z,89.9
2023-12-29T08:40:02.451Z,90.7
2023-12-29T08:45:00.731Z,92.6
2023-12-29T08:50:00.661Z,91.3
2023-12-29T08:55:00.727Z,91.5
2023-12-29T09:00:00.710Z,90.7
2023-12-29T09:05:00.941Z,90.7
2023-12-29T09:10:01.063Z,92.4
2023-12-29T09:15:00.672Z,92.8
2023-12-29T09:20:06.958Z,91.5
2023-12-29T09:25:00.986Z,91.7
2023-12-29T09:30:00.765Z,92.7
2023-12-29T09:35:00.755Z,91.3
2023-12-29T09:40:00.746Z,92.6
2023-12-29T09:45:07.003Z,90.8
2023-12-29T09:50:01.604Z,89.9
2023-12-29T09:55:01.741Z,89.7
2023-12-29T10:00:01.659Z,90.0
2023-12-29T10:05:03.590Z,91.0
2023-12-29T10:10:01.692Z,89.4
2023-12-29T10:15:05.992Z,89.3
2023-12-29T10:20:09.412Z,90.7
2023-12-29T10:25:18.215Z,90.0
2023-12-29T10:30:00.704Z,87.5
2023-12-29T10:35:11.257Z,90.8
2023-12-29T10:40:00.838Z,90.0
2023-12-29T10:45:06.840Z,89.6
2023-12-29T10:50:02.273Z,91.5
2023-12-29T10:55:05.556Z,93.0
2023-12-29T11:00:01.104Z,93.3
2023-12-29T11:05:02.737Z,93.0
2023-12-29T11:10:07.156Z,94.2
2023-12-29T11:15:02.804Z,94.7
2023-12-29T11:20:01.852Z,93.2
2023-12-29T11:25:01.423Z,94.1
2023-12-29T11:30:02.460Z,95.0
2023-12-29T11:35:12.066Z,96.4
2023-12-29T11:40:14.485Z,97.1
2023-12-29T11:45:36.045Z,98.6
2023-12-29T11:50:02.177Z,99.2
2023-12-29T11:55:08.175Z,99.7
2023-12-29T12:00:00.796Z,100.0
2023-12-29T12:05:00.774Z,100.0
2023-12-29T12:20:03.125Z,100.0
2023-12-29T12:30:00.829Z,99.1
2023-12-29T12:35:01.105Z,98.9
2023-12-29T12:40:00.730Z,96.9
2023-12-29T12:45:06.597Z,97.3
2023-12-29T12:50:01.316Z,96.4
2023-12-29T12:55:01.014Z,97.7
2023-12-29T13:00:02.425Z,97.0
2023-12-29T13:05:01.317Z,98.2
2023-12-29T13:10:01.799Z,98.6
2023-12-29T13:15:07.644Z,97.3
2023-12-29T13:20:00.846Z,96.9
2023-12-29T13:25:05.280Z,97.5
2023-12-29T13:30:06.132Z,98.8
2023-12-29T13:35:06.822Z,99.0
2023-12-29T13:40:10.314Z,99.6
2023-12-29T13:45:03.390Z,99.7
2023-12-29T13:50:01.160Z,99.6
2023-12-29T13:55:01.237Z,99.5
2023-12-29T14:00:19.024Z,99.2
2023-12-29T14:05:14.753Z,100.0
2023-12-29T14:10:00.851Z,99.4
2023-12-29T14:15:03.828Z,100.0
2023-12-29T14:20:00.743Z,100.0
2023-12-29T14:25:02.795Z,100.0
2023-12-29T14:30:02.450Z,100.0
2023-12-29T14:35:00.705Z,100.0
2023-12-29T14:40:00.769Z,100.0
2023-12-29T14:45:00.726Z,100.0
2023-12-29T14:50:01.077Z,100.0
2023-12-29T14:55:00.771Z,100.0
2023-12-29T15:00:00.903Z,100.0
2023-12-29T15:05:00.765Z,100.0
2023-12-29T15:10:00.955Z,100.0
2023-12-29T15:15:00.953Z,100.0
2023-12-29T15:20:00.685Z,100.0
2023-12-29T15:25:00.739Z,100.0
2023-12-29T15:30:01.181Z,98.5
2023-12-29T15:35:00.720Z,98.7
2023-12-29T15:40:00.789Z,100.0
2023-12-29T15:45:00.734Z,100.0
2023-12-29T15:50:00.761Z,100.0
2023-12-29T15:55:00.746Z,98.9
2023-12-29T16:00:00.764Z,97.9
2023-12-29T16:05:01.017Z,100.0
2023-12-29T16:10:00.788Z,99.5
2023-12-29T16:15:01.013Z,98.4
2023-12-29T16:20:00.748Z,99.9
2023-12-29T16:25:00.759Z,100.0
2023-12-29T16:30:01.071Z,100.0
2023-12-29T16:35:01.132Z,99.5
2023-12-29T16:40:01.093Z,99.2
2023-12-29T16:45:03.663Z,98.2
2023-12-29T16:50:00.679Z,99.0
2023-12-29T16:55:00.752Z,98.7
2023-12-29T17:00:00.706Z,97.0
2023-12-29T17:05:00.706Z,97.7
2023-12-29T17:10:00.717Z,97.5
2023-12-29T17:15:00.785Z,96.7
2023-12-29T17:20:00.730Z,96.7
2023-12-29T17:25:00.706Z,96.8
2023-12-29T17:30:16.851Z,96.0
2023-12-29T17:35:00.763Z,97.8
2023-12-29T17:40:00.802Z,98.0
2023-12-29T17:45:00.694Z,96.1
2023-12-29T17:50:01.608Z,96.7
2023-12-29T17:55:00.853Z,96.3
2023-12-29T18:00:00.832Z,96.2
2023-12-29T18:05:00.978Z,96.2
2023-12-29T18:10:00.755Z,96.3
2023-12-29T18:15:01.028Z,96.7
2023-12-29T18:20:00.816Z,96.7
2023-12-29T18:25:00.907Z,95.8
2023-12-29T18:30:00.783Z,96.1
2023-12-29T18:35:00.707Z,96.4
2023-12-29T18:40:01.042Z,96.9
2023-12-29T18:45:00.758Z,97.2
2023-12-29T18:50:04.988Z,95.2
2023-12-29T18:55:00.709Z,94.8
2023-12-29T19:00:00.757Z,94.8
2023-12-29T19:05:00.790Z,94.2
2023-12-29T19:10:00.780Z,95.3
2023-12-29T19:15:00.892Z,97.2
2023-12-29T19:20:00.655Z,98.9
2023-12-29T19:25:00.823Z,99.6
2023-12-29T19:30:05.976Z,100.0
2023-12-29T19:35:01.065Z,98.6
2023-12-29T19:40:00.791Z,98.9
2023-12-29T19:45:09.245Z,96.5
2023-12-29T19:50:00.760Z,98.7
2023-12-29T19:55:01.273Z,98.1
2023-12-29T20:00:00.769Z,100.0
2023-12-29T20:05:00.706Z,100.0
2023-12-29T20:10:01.773Z,99.6
2023-12-29T20:15:00.774Z,99.7
2023-12-29T20:20:00.786Z,99.4
2023-12-29T20:25:00.730Z,100.0
2023-12-29T20:30:00.805Z,99.5
2023-12-29T20:35:00.864Z,100.0
2023-12-29T20:40:00.741Z,100.0
2023-12-29T20:45:00.799Z,100.0
2023-12-29T20:50:00.778Z,100.0
2023-12-29T20:55:00.975Z,100.0
2023-12-29T21:00:00.793Z,100.0
2023-12-29T21:05:00.696Z,100.0
2023-12-29T21:10:01.022Z,100.0
2023-12-29T21:15:00.762Z,100.0
2023-12-29T21:20:00.754Z,100.0
2023-12-29T21:25:00.840Z,100.0
2023-12-29T21:30:00.747Z,100.0
2023-12-29T21:35:00.682Z,100.0
2023-12-29T21:40:00.774Z,100.0
2023-12-29T21:45:00.749Z,100.0
2023-12-29T21:50:02.674Z,100.0
2023-12-29T21:55:00.765Z,100.0
2023-12-29T22:00:00.720Z,100.0
2023-12-29T22:05:00.982Z,100.0
2023-12-29T22:10:00.804Z,100.0
2023-12-29T22:15:00.821Z,100.0
2023-12-29T22:20:01.041Z,100.0
2023-12-29T22:25:02.171Z,100.0
2023-12-29T22:30:00.973Z,100.0
2023-12-29T22:35:00.998Z,100.0
2023-12-29T22:40:00.666Z,100.0
2023-12-29T22:45:00.820Z,100.0
2023-12-29T22:50:00.705Z,100.0
2023-12-29T22:55:00.698Z,100.0
2023-12-29T23:00:00.714Z,100.0
2023-12-29T23:05:00.936Z,100.0
2023-12-29T23:10:00.750Z,100.0
2023-12-29T23:15:00.801Z,100.0
2023-12-29T23:20:01.163Z,100.0
2023-12-29T23:25:01.102Z,100.0
2023-12-29T23:30:27.634Z,100.0
2023-12-29T23:35:09.959Z,100.0
2023-12-29T23:40:00.761Z,100.0
2023-12-29T23:45:00.736Z,100.0
2023-12-29T23:50:00.935Z,100.0
2023-12-29T23:55:01.017Z,100.0
